PWSweather.com
Personal Weather Stations
Station Observations

ChardChardGB

Lat: 50.877408, Lon: -2.94964741

Elevation: 341

Station Type: WS3083

http://www.merriott-astro.co.uk/weather/index.htm

High Low Average
Temperature 36.1°F2.3°C 31.6°F-0.2°C 33.6°F0.9°C
Dew Point 30.7°F-0.7°C 26.3°F-3.2°C 28.0°F-2.2°C
Winds 17.1 mph 27.5 kmh 3.6 mph 5.8 kmh 8.0 mph E12.9 kmh E
Wind Gusts 22.8 mph36.7 kmh 5.4 mph8.7 kmh 11.0 mph17.7 kmh
Humidity 85% 71% 80%
Pressure 29.39 in995.3 mb 28.89 in978.3 mb -
Precipitation 0.02 in0.5 mm - -
Hour Temp Dew Point Humidity Winds Wind Gusts Pressure Precip Precip Rate Daily Precip Total
12:00 AM 32.0°F0.0°C 27.7°F-2.4°C 84% 8.5 mph NE13.7 kmh NE 13.0 mph20.9 kmh 28.89 in978.3 mb 0.00 in0.0 mm 0.00 in0.0 mm 0.00 in0.0 mm
12:10 AM 32.0°F0.0°C 27.7°F-2.4°C 84% 7.8 mph NE12.6 kmh NE 10.7 mph17.2 kmh 28.89 in978.3 mb 0.00 in0.0 mm 0.00 in0.0 mm 0.00 in0.0 mm
12:20 AM 31.8°F-0.1°C 27.6°F-2.4°C 84% 7.9 mph NE12.7 kmh NE 10.7 mph17.2 kmh 28.89 in978.3 mb 0.00 in0.0 mm 0.00 in0.0 mm 0.00 in0.0 mm
12:30 AM 31.6°F-0.2°C 27.4°F-2.6°C 84% 7.2 mph NE11.6 kmh NE 9.2 mph14.8 kmh 28.89 in978.3 mb 0.00 in0.0 mm 0.00 in0.0 mm 0.00 in0.0 mm
12:40 AM 31.6°F-0.2°C 27.4°F-2.6°C 84% 6.4 mph NE10.3 kmh NE 9.2 mph14.8 kmh 28.90 in978.7 mb 0.00 in0.0 mm 0.00 in0.0 mm 0.00 in0.0 mm
12:50 AM 31.6°F-0.2°C 27.4°F-2.6°C 84% 6.8 mph NE10.9 kmh NE 8.3 mph13.4 kmh 28.90 in978.7 mb 0.00 in0.0 mm 0.00 in0.0 mm 0.00 in0.0 mm
01:00 AM 31.6°F-0.2°C 27.4°F-2.6°C 84% 6.8 mph NE10.9 kmh NE 8.3 mph13.4 kmh 28.90 in978.7 mb 0.00 in0.0 mm 0.00 in0.0 mm 0.00 in0.0 mm
01:10 AM 31.6°F-0.2°C 27.4°F-2.6°C 84% 6.0 mph NE9.7 kmh NE 7.6 mph12.2 kmh 28.90 in978.7 mb 0.00 in0.0 mm 0.00 in0.0 mm 0.00 in0.0 mm
01:20 AM 31.6°F-0.2°C 27.4°F-2.6°C 84% 5.4 mph NE8.7 kmh NE 7.6 mph12.2 kmh 28.90 in978.7 mb 0.00 in0.0 mm 0.00 in0.0 mm 0.00 in0.0 mm
01:30 AM 31.6°F-0.2°C 27.4°F-2.6°C 84% 5.0 mph NE8.0 kmh NE 6.0 mph9.7 kmh 28.90 in978.7 mb 0.00 in0.0 mm 0.00 in0.0 mm 0.00 in0.0 mm
01:40 AM 31.6°F-0.2°C 27.4°F-2.6°C 84% 6.0 mph NE9.7 kmh NE 6.9 mph11.1 kmh 28.91 in979.0 mb 0.00 in0.0 mm 0.00 in0.0 mm 0.00 in0.0 mm
01:50 AM 31.6°F-0.2°C 27.4°F-2.6°C 84% 6.2 mph NE10.0 kmh NE 8.3 mph13.4 kmh 28.91 in979.0 mb 0.00 in0.0 mm 0.00 in0.0 mm 0.00 in0.0 mm
02:00 AM 31.8°F-0.1°C 27.6°F-2.4°C 84% 5.9 mph NE9.5 kmh NE 9.2 mph14.8 kmh 28.90 in978.7 mb 0.00 in0.0 mm 0.00 in0.0 mm 0.00 in0.0 mm
02:10 AM 31.8°F-0.1°C 27.6°F-2.4°C 84% 5.9 mph NE9.5 kmh NE 7.6 mph12.2 kmh 28.90 in978.7 mb 0.00 in0.0 mm 0.00 in0.0 mm 0.00 in0.0 mm
02:20 AM 31.8°F-0.1°C 27.6°F-2.4°C 84% 5.0 mph NE8.0 kmh NE 7.6 mph12.2 kmh 28.90 in978.7 mb 0.00 in0.0 mm 0.00 in0.0 mm 0.00 in0.0 mm
02:30 AM 31.8°F-0.1°C 27.6°F-2.4°C 84% 4.8 mph NE7.7 kmh NE 6.0 mph9.7 kmh 28.90 in978.7 mb 0.00 in0.0 mm 0.00 in0.0 mm 0.00 in0.0 mm
02:40 AM 31.8°F-0.1°C 27.6°F-2.4°C 84% 5.4 mph NE8.7 kmh NE 6.9 mph11.1 kmh 28.91 in979.0 mb 0.00 in0.0 mm 0.00 in0.0 mm 0.00 in0.0 mm
02:50 AM 32.0°F0.0°C 27.7°F-2.4°C 84% 5.4 mph NE8.7 kmh NE 6.9 mph11.1 kmh 28.91 in979.0 mb 0.00 in0.0 mm 0.00 in0.0 mm 0.00 in0.0 mm
03:00 AM 32.0°F0.0°C 27.7°F-2.4°C 84% 4.7 mph NE7.6 kmh NE 6.9 mph11.1 kmh 28.91 in979.0 mb 0.00 in0.0 mm 0.00 in0.0 mm 0.00 in0.0 mm
03:10 AM 32.0°F0.0°C 27.7°F-2.4°C 84% 3.6 mph NE5.8 kmh NE 5.4 mph8.7 kmh 28.92 in979.3 mb 0.00 in0.0 mm 0.00 in0.0 mm 0.00 in0.0 mm
03:20 AM 32.0°F0.0°C 28.0°F-2.2°C 85% 4.6 mph NE7.4 kmh NE 5.4 mph8.7 kmh 28.92 in979.3 mb 0.00 in0.0 mm 0.00 in0.0 mm 0.00 in0.0 mm
03:30 AM 32.0°F0.0°C 28.0°F-2.2°C 85% 4.1 mph NE6.6 kmh NE 5.4 mph8.7 kmh 28.92 in979.3 mb 0.00 in0.0 mm 0.00 in0.0 mm 0.00 in0.0 mm
03:40 AM 32.0°F0.0°C 28.0°F-2.2°C 85% 5.5 mph NE8.9 kmh NE 7.6 mph12.2 kmh 28.91 in979.0 mb 0.00 in0.0 mm 0.00 in0.0 mm 0.00 in0.0 mm
03:50 AM 32.0°F0.0°C 28.0°F-2.2°C 85% 4.5 mph NE7.2 kmh NE 6.9 mph11.1 kmh 28.92 in979.3 mb 0.00 in0.0 mm 0.00 in0.0 mm 0.00 in0.0 mm
04:00 AM 32.0°F0.0°C 28.0°F-2.2°C 85% 3.8 mph NE6.1 kmh NE 6.9 mph11.1 kmh 28.92 in979.3 mb 0.00 in0.0 mm 0.00 in0.0 mm 0.00 in0.0 mm
04:10 AM 32.0°F0.0°C 28.0°F-2.2°C 85% 4.1 mph NE6.6 kmh NE 6.9 mph11.1 kmh 28.92 in979.3 mb 0.00 in0.0 mm 0.00 in0.0 mm 0.00 in0.0 mm
04:20 AM 32.0°F0.0°C 28.0°F-2.2°C 85% 4.5 mph NE7.2 kmh NE 7.6 mph12.2 kmh 28.92 in979.3 mb 0.00 in0.0 mm 0.00 in0.0 mm 0.00 in0.0 mm
04:30 AM 32.0°F0.0°C 28.0°F-2.2°C 85% 4.5 mph NE7.2 kmh NE 6.0 mph9.7 kmh 28.92 in979.3 mb 0.00 in0.0 mm 0.00 in0.0 mm 0.00 in0.0 mm
04:40 AM 32.0°F0.0°C 28.0°F-2.2°C 85% 4.8 mph NE7.7 kmh NE 6.0 mph9.7 kmh 28.91 in979.0 mb 0.00 in0.0 mm 0.00 in0.0 mm 0.00 in0.0 mm
04:50 AM 32.0°F0.0°C 28.0°F-2.2°C 85% 4.9 mph NE7.9 kmh NE 7.6 mph12.2 kmh 28.92 in979.3 mb 0.00 in0.0 mm 0.00 in0.0 mm 0.00 in0.0 mm
05:00 AM 32.0°F0.0°C 28.0°F-2.2°C 85% 4.4 mph NE7.1 kmh NE 5.4 mph8.7 kmh 28.92 in979.3 mb 0.00 in0.0 mm 0.00 in0.0 mm 0.00 in0.0 mm
05:10 AM 32.0°F0.0°C 28.0°F-2.2°C 85% 6.3 mph NE10.1 kmh NE 6.9 mph11.1 kmh 28.92 in979.3 mb 0.00 in0.0 mm 0.00 in0.0 mm 0.00 in0.0 mm
05:20 AM 32.0°F0.0°C 28.0°F-2.2°C 85% 6.9 mph NE11.1 kmh NE 6.9 mph11.1 kmh 28.92 in979.3 mb 0.00 in0.0 mm 0.00 in0.0 mm 0.00 in0.0 mm
05:30 AM 32.0°F0.0°C 28.0°F-2.2°C 85% 6.9 mph NE11.1 kmh NE 6.9 mph11.1 kmh 28.93 in979.7 mb 0.00 in0.0 mm 0.00 in0.0 mm 0.00 in0.0 mm
05:40 AM 32.0°F0.0°C 28.0°F-2.2°C 85% 6.9 mph NE11.1 kmh NE 6.9 mph11.1 kmh 28.93 in979.7 mb 0.00 in0.0 mm 0.00 in0.0 mm 0.00 in0.0 mm
05:50 AM 32.0°F0.0°C 28.0°F-2.2°C 85% 6.9 mph NE11.1 kmh NE 6.9 mph11.1 kmh 28.93 in979.7 mb 0.00 in0.0 mm 0.00 in0.0 mm 0.00 in0.0 mm
06:00 AM 32.0°F0.0°C 28.0°F-2.2°C 85% 6.9 mph NE11.1 kmh NE 6.9 mph11.1 kmh 28.93 in979.7 mb 0.00 in0.0 mm 0.00 in0.0 mm 0.00 in0.0 mm
06:10 AM 32.0°F0.0°C 28.0°F-2.2°C 85% 6.9 mph NE11.1 kmh NE 6.9 mph11.1 kmh 28.94 in980.0 mb 0.00 in0.0 mm 0.00 in0.0 mm 0.00 in0.0 mm
06:20 AM 32.0°F0.0°C 28.0°F-2.2°C 85% 6.9 mph NE11.1 kmh NE 6.9 mph11.1 kmh 28.94 in980.0 mb 0.00 in0.0 mm 0.00 in0.0 mm 0.00 in0.0 mm
06:30 AM 32.0°F0.0°C 28.0°F-2.2°C 85% 6.9 mph NE11.1 kmh NE 6.9 mph11.1 kmh 28.95 in980.4 mb 0.00 in0.0 mm 0.00 in0.0 mm 0.00 in0.0 mm
06:40 AM 32.0°F0.0°C 28.0°F-2.2°C 85% 6.9 mph NE11.1 kmh NE 6.9 mph11.1 kmh 28.95 in980.4 mb 0.00 in0.0 mm 0.00 in0.0 mm 0.00 in0.0 mm
06:50 AM 32.0°F0.0°C 28.0°F-2.2°C 85% 6.9 mph NE11.1 kmh NE 6.9 mph11.1 kmh 28.95 in980.4 mb 0.00 in0.0 mm 0.00 in0.0 mm 0.00 in0.0 mm
07:00 AM 32.0°F0.0°C 28.0°F-2.2°C 85% 6.9 mph NE11.1 kmh NE 6.9 mph11.1 kmh 28.96 in980.7 mb 0.00 in0.0 mm 0.00 in0.0 mm 0.00 in0.0 mm
07:10 AM 32.0°F0.0°C 28.0°F-2.2°C 85% 6.9 mph NE11.1 kmh NE 6.9 mph11.1 kmh 28.96 in980.7 mb 0.00 in0.0 mm 0.00 in0.0 mm 0.00 in0.0 mm
07:20 AM 32.0°F0.0°C 28.0°F-2.2°C 85% 6.9 mph NE11.1 kmh NE 6.9 mph11.1 kmh 28.97 in981.0 mb 0.00 in0.0 mm 0.00 in0.0 mm 0.00 in0.0 mm
07:30 AM 32.0°F0.0°C 28.0°F-2.2°C 85% 6.9 mph NE11.1 kmh NE 6.9 mph11.1 kmh 28.97 in981.0 mb 0.00 in0.0 mm 0.00 in0.0 mm 0.00 in0.0 mm
07:40 AM 32.0°F0.0°C 28.0°F-2.2°C 85% 6.9 mph NE11.1 kmh NE 6.9 mph11.1 kmh 28.97 in981.0 mb 0.00 in0.0 mm 0.00 in0.0 mm 0.00 in0.0 mm
07:50 AM 32.0°F0.0°C 28.0°F-2.2°C 85% 3.6 mph NE5.8 kmh NE 5.4 mph8.7 kmh 28.97 in981.0 mb 0.00 in0.0 mm 0.00 in0.0 mm 0.00 in0.0 mm
08:00 AM 32.0°F0.0°C 28.0°F-2.2°C 85% 4.8 mph NE7.7 kmh NE 6.9 mph11.1 kmh 28.97 in981.0 mb 0.00 in0.0 mm 0.00 in0.0 mm 0.00 in0.0 mm
08:10 AM 32.0°F0.0°C 28.0°F-2.2°C 85% 5.5 mph NE8.9 kmh NE 7.6 mph12.2 kmh 28.97 in981.0 mb 0.00 in0.0 mm 0.00 in0.0 mm 0.00 in0.0 mm
08:20 AM 32.0°F0.0°C 28.0°F-2.2°C 85% 4.3 mph NE6.9 kmh NE 6.9 mph11.1 kmh 28.98 in981.4 mb 0.00 in0.0 mm 0.00 in0.0 mm 0.00 in0.0 mm
08:30 AM 32.0°F0.0°C 28.0°F-2.2°C 85% 5.3 mph NE8.5 kmh NE 6.9 mph11.1 kmh 28.98 in981.4 mb 0.00 in0.0 mm 0.00 in0.0 mm 0.00 in0.0 mm
08:40 AM 32.2°F0.1°C 28.2°F-2.1°C 85% 7.5 mph NE12.1 kmh NE 10.7 mph17.2 kmh 28.98 in981.4 mb 0.00 in0.0 mm 0.00 in0.0 mm 0.00 in0.0 mm
08:50 AM 32.2°F0.1°C 28.2°F-2.1°C 85% 6.1 mph NE9.8 kmh NE 7.6 mph12.2 kmh 28.99 in981.7 mb 0.00 in0.0 mm 0.00 in0.0 mm 0.00 in0.0 mm
09:00 AM 32.2°F0.1°C 28.2°F-2.1°C 85% 6.4 mph NE10.3 kmh NE 9.8 mph15.8 kmh 28.99 in981.7 mb 0.00 in0.0 mm 0.00 in0.0 mm 0.00 in0.0 mm
09:10 AM 32.4°F0.2°C 28.4°F-2.0°C 85% 5.3 mph NE8.5 kmh NE 8.3 mph13.4 kmh 29.00 in982.1 mb 0.00 in0.0 mm 0.00 in0.0 mm 0.00 in0.0 mm
09:20 AM 32.4°F0.2°C 28.4°F-2.0°C 85% 6.3 mph NE10.1 kmh NE 9.2 mph14.8 kmh 29.00 in982.1 mb 0.00 in0.0 mm 0.00 in0.0 mm 0.00 in0.0 mm
09:30 AM 32.4°F0.2°C 28.4°F-2.0°C 85% 7.1 mph NE11.4 kmh NE 9.2 mph14.8 kmh 29.01 in982.4 mb 0.00 in0.0 mm 0.00 in0.0 mm 0.00 in0.0 mm
09:40 AM 32.4°F0.2°C 28.4°F-2.0°C 85% 6.2 mph NE10.0 kmh NE 7.6 mph12.2 kmh 29.00 in982.1 mb 0.00 in0.0 mm 0.00 in0.0 mm 0.00 in0.0 mm
09:50 AM 32.4°F0.2°C 28.4°F-2.0°C 85% 6.9 mph NE11.1 kmh NE 11.4 mph18.3 kmh 29.02 in982.7 mb 0.00 in0.0 mm 0.00 in0.0 mm 0.00 in0.0 mm
10:00 AM 32.5°F0.3°C 28.5°F-1.9°C 85% 8.1 mph NE13.0 kmh NE 11.4 mph18.3 kmh 29.01 in982.4 mb 0.00 in0.0 mm 0.00 in0.0 mm 0.00 in0.0 mm
10:10 AM 32.7°F0.4°C 28.7°F-1.8°C 85% 4.9 mph NE7.9 kmh NE 9.8 mph15.8 kmh 29.02 in982.7 mb 0.00 in0.0 mm 0.00 in0.0 mm 0.00 in0.0 mm
10:20 AM 32.7°F0.4°C 28.7°F-1.8°C 85% 6.9 mph NE11.1 kmh NE 6.9 mph11.1 kmh 29.02 in982.7 mb 0.00 in0.0 mm 0.00 in0.0 mm 0.00 in0.0 mm
10:30 AM 32.7°F0.4°C 28.7°F-1.8°C 85% 6.9 mph NE11.1 kmh NE 6.9 mph11.1 kmh 29.02 in982.7 mb 0.00 in0.0 mm 0.00 in0.0 mm 0.00 in0.0 mm
10:40 AM 32.7°F0.4°C 28.7°F-1.8°C 85% 6.9 mph NE11.1 kmh NE 6.9 mph11.1 kmh 29.03 in983.1 mb 0.00 in0.0 mm 0.00 in0.0 mm 0.00 in0.0 mm
10:50 AM 32.7°F0.4°C 28.7°F-1.8°C 85% 6.9 mph NE11.1 kmh NE 6.9 mph11.1 kmh 29.03 in983.1 mb 0.00 in0.0 mm 0.00 in0.0 mm 0.00 in0.0 mm
11:00 AM 32.7°F0.4°C 28.7°F-1.8°C 85% 6.9 mph NE11.1 kmh NE 6.9 mph11.1 kmh 29.04 in983.4 mb 0.00 in0.0 mm 0.00 in0.0 mm 0.00 in0.0 mm
11:10 AM 32.7°F0.4°C 28.7°F-1.8°C 85% 6.9 mph NE11.1 kmh NE 6.9 mph11.1 kmh 29.04 in983.4 mb 0.00 in0.0 mm 0.00 in0.0 mm 0.00 in0.0 mm
11:20 AM 32.7°F0.4°C 28.7°F-1.8°C 85% 6.9 mph NE11.1 kmh NE 6.9 mph11.1 kmh 29.03 in983.1 mb 0.00 in0.0 mm 0.00 in0.0 mm 0.00 in0.0 mm
11:30 AM 32.7°F0.4°C 28.7°F-1.8°C 85% 6.9 mph NE11.1 kmh NE 6.9 mph11.1 kmh 29.05 in983.7 mb 0.00 in0.0 mm 0.00 in0.0 mm 0.00 in0.0 mm
11:40 AM 32.7°F0.4°C 28.7°F-1.8°C 85% 6.9 mph NE11.1 kmh NE 6.9 mph11.1 kmh 29.05 in983.7 mb 0.00 in0.0 mm 0.00 in0.0 mm 0.00 in0.0 mm
11:50 AM 32.7°F0.4°C 28.7°F-1.8°C 85% 6.9 mph NE11.1 kmh NE 6.9 mph11.1 kmh 29.05 in983.7 mb 0.00 in0.0 mm 0.00 in0.0 mm 0.00 in0.0 mm
12:00 PM 32.7°F0.4°C 28.7°F-1.8°C 85% 6.9 mph NE11.1 kmh NE 6.9 mph11.1 kmh 29.04 in983.4 mb 0.00 in0.0 mm 0.00 in0.0 mm 0.00 in0.0 mm
12:10 PM 32.7°F0.4°C 28.7°F-1.8°C 85% 6.9 mph NE11.1 kmh NE 6.9 mph11.1 kmh 29.04 in983.4 mb 0.00 in0.0 mm 0.00 in0.0 mm 0.00 in0.0 mm
12:20 PM 32.7°F0.4°C 28.7°F-1.8°C 85% 6.9 mph NE11.1 kmh NE 6.9 mph11.1 kmh 29.05 in983.7 mb 0.00 in0.0 mm 0.00 in0.0 mm 0.00 in0.0 mm
12:30 PM 32.7°F0.4°C 28.7°F-1.8°C 85% 6.9 mph NE11.1 kmh NE 6.9 mph11.1 kmh 29.05 in983.7 mb 0.00 in0.0 mm 0.00 in0.0 mm 0.00 in0.0 mm
12:40 PM 32.7°F0.4°C 28.7°F-1.8°C 85% 6.9 mph NE11.1 kmh NE 6.9 mph11.1 kmh 29.05 in983.7 mb 0.00 in0.0 mm 0.00 in0.0 mm 0.00 in0.0 mm
12:50 PM 32.7°F0.4°C 28.7°F-1.8°C 85% 6.9 mph NE11.1 kmh NE 6.9 mph11.1 kmh 29.05 in983.7 mb 0.00 in0.0 mm 0.00 in0.0 mm 0.00 in0.0 mm
01:00 PM 32.7°F0.4°C 28.7°F-1.8°C 85% 6.9 mph NE11.1 kmh NE 6.9 mph11.1 kmh 29.05 in983.7 mb 0.00 in0.0 mm 0.00 in0.0 mm 0.00 in0.0 mm
01:10 PM 32.7°F0.4°C 28.7°F-1.8°C 85% 6.9 mph NE11.1 kmh NE 6.9 mph11.1 kmh 29.06 in984.1 mb 0.00 in0.0 mm 0.00 in0.0 mm 0.00 in0.0 mm
01:20 PM 32.7°F0.4°C 28.7°F-1.8°C 85% 6.9 mph NE11.1 kmh NE 6.9 mph11.1 kmh 29.06 in984.1 mb 0.00 in0.0 mm 0.00 in0.0 mm 0.00 in0.0 mm
01:30 PM 32.7°F0.4°C 28.7°F-1.8°C 85% 6.9 mph NE11.1 kmh NE 6.9 mph11.1 kmh 29.07 in984.4 mb 0.00 in0.0 mm 0.00 in0.0 mm 0.00 in0.0 mm
01:40 PM 32.7°F0.4°C 28.7°F-1.8°C 85% 6.9 mph NE11.1 kmh NE 6.9 mph11.1 kmh 29.07 in984.4 mb 0.00 in0.0 mm 0.00 in0.0 mm 0.00 in0.0 mm
01:50 PM 32.7°F0.4°C 28.7°F-1.8°C 85% 6.9 mph NE11.1 kmh NE 6.9 mph11.1 kmh 29.07 in984.4 mb 0.00 in0.0 mm 0.00 in0.0 mm 0.00 in0.0 mm
02:00 PM 34.7°F1.5°C 30.7°F-0.7°C 85% 13.3 mph NNE21.4 kmh NNE 16.8 mph27.0 kmh 29.07 in984.4 mb 0.00 in0.0 mm 0.00 in0.0 mm 0.00 in0.0 mm
02:10 PM 34.9°F1.6°C 30.6°F-0.8°C 84% 13.1 mph NNE21.1 kmh NNE 17.4 mph28.0 kmh 29.07 in984.4 mb 0.00 in0.0 mm 0.00 in0.0 mm 0.00 in0.0 mm
02:20 PM 34.9°F1.6°C 30.3°F-0.9°C 83% 14.4 mph E23.2 kmh E 18.3 mph29.5 kmh 29.06 in984.1 mb 0.00 in0.0 mm 0.00 in0.0 mm 0.00 in0.0 mm
02:30 PM 35.2°F1.8°C 30.3°F-0.9°C 82% 15.2 mph NE24.5 kmh NE 19.0 mph30.6 kmh 29.07 in984.4 mb 0.00 in0.0 mm 0.00 in0.0 mm 0.00 in0.0 mm
02:40 PM 35.4°F1.9°C 29.9°F-1.2°C 80% 16.4 mph ENE26.4 kmh ENE 21.3 mph34.3 kmh 29.07 in984.4 mb 0.00 in0.0 mm 0.00 in0.0 mm 0.00 in0.0 mm
02:50 PM 35.6°F2.0°C 29.4°F-1.4°C 78% 15.6 mph NE25.1 kmh NE 20.6 mph33.2 kmh 29.08 in984.8 mb 0.01 in0.3 mm 0.06 in1.5 mm 0.01 in0.3 mm
03:00 PM 35.6°F2.0°C 28.8°F-1.8°C 76% 17.1 mph NE27.5 kmh NE 22.8 mph36.7 kmh 29.08 in984.8 mb 0.01 in0.3 mm 0.00 in0.0 mm 0.01 in0.3 mm
03:10 PM 35.8°F2.1°C 28.3°F-2.1°C 74% 16.9 mph NNE27.2 kmh NNE 19.7 mph31.7 kmh 29.08 in984.8 mb 0.01 in0.3 mm 0.00 in0.0 mm 0.01 in0.3 mm
03:20 PM 36.0°F2.2°C 28.2°F-2.1°C 73% 16.0 mph E25.7 kmh E 22.1 mph35.6 kmh 29.09 in985.1 mb 0.01 in0.3 mm 0.00 in0.0 mm 0.01 in0.3 mm
03:30 PM 36.0°F2.2°C 27.8°F-2.3°C 72% 15.5 mph NE24.9 kmh NE 19.0 mph30.6 kmh 29.10 in985.4 mb 0.01 in0.3 mm 0.00 in0.0 mm 0.01 in0.3 mm
03:40 PM 36.0°F2.2°C 27.8°F-2.3°C 72% 15.2 mph E24.5 kmh E 21.3 mph34.3 kmh 29.11 in985.8 mb 0.01 in0.3 mm 0.00 in0.0 mm 0.01 in0.3 mm
03:50 PM 36.1°F2.3°C 28.3°F-2.1°C 73% 14.5 mph N23.3 kmh N 19.7 mph31.7 kmh 29.12 in986.1 mb 0.00 in0.0 mm 0.00 in0.0 mm 0.01 in0.3 mm
04:00 PM 36.0°F2.2°C 28.2°F-2.1°C 73% 13.0 mph NNE20.9 kmh NNE 15.9 mph25.6 kmh 29.12 in986.1 mb 0.00 in0.0 mm 0.00 in0.0 mm 0.01 in0.3 mm
04:10 PM 36.0°F2.2°C 28.2°F-2.1°C 73% 12.9 mph ENE20.8 kmh ENE 15.9 mph25.6 kmh 29.14 in986.8 mb 0.00 in0.0 mm 0.00 in0.0 mm 0.01 in0.3 mm
04:20 PM 35.8°F2.1°C 28.0°F-2.2°C 73% 10.5 mph E16.9 kmh E 15.2 mph24.5 kmh 29.14 in986.8 mb 0.00 in0.0 mm 0.00 in0.0 mm 0.01 in0.3 mm
04:30 PM 35.8°F2.1°C 28.0°F-2.2°C 73% 12.3 mph NE19.8 kmh NE 19.0 mph30.6 kmh 29.14 in986.8 mb 0.00 in0.0 mm 0.00 in0.0 mm 0.01 in0.3 mm
04:40 PM 35.6°F2.0°C 27.8°F-2.3°C 73% 10.0 mph ENE16.1 kmh ENE 12.1 mph19.5 kmh 29.15 in987.1 mb 0.00 in0.0 mm 0.00 in0.0 mm 0.01 in0.3 mm
04:50 PM 35.6°F2.0°C 27.8°F-2.3°C 73% 10.0 mph NE16.1 kmh NE 13.0 mph20.9 kmh 29.16 in987.5 mb 0.00 in0.0 mm 0.00 in0.0 mm 0.01 in0.3 mm
05:00 PM 35.6°F2.0°C 27.8°F-2.3°C 73% 10.1 mph NE16.3 kmh NE 14.5 mph23.3 kmh 29.16 in987.5 mb 0.00 in0.0 mm 0.00 in0.0 mm 0.01 in0.3 mm
05:10 PM 35.2°F1.8°C 27.5°F-2.5°C 73% 9.9 mph N15.9 kmh N 13.6 mph21.9 kmh 29.18 in988.1 mb 0.00 in0.0 mm 0.00 in0.0 mm 0.01 in0.3 mm
05:20 PM 35.6°F2.0°C 28.1°F-2.2°C 74% 10.8 mph NNE17.4 kmh NNE 16.8 mph27.0 kmh 29.18 in988.1 mb 0.00 in0.0 mm 0.00 in0.0 mm 0.01 in0.3 mm
05:30 PM 35.6°F2.0°C 27.8°F-2.3°C 73% 9.9 mph NE15.9 kmh NE 13.0 mph20.9 kmh 29.18 in988.1 mb 0.00 in0.0 mm 0.00 in0.0 mm 0.01 in0.3 mm
05:40 PM 35.6°F2.0°C 27.8°F-2.3°C 73% 11.1 mph ENE17.9 kmh ENE 16.8 mph27.0 kmh 29.19 in988.5 mb 0.00 in0.0 mm 0.00 in0.0 mm 0.01 in0.3 mm
05:50 PM 35.6°F2.0°C 27.8°F-2.3°C 73% 11.2 mph N18.0 kmh N 15.2 mph24.5 kmh 29.20 in988.8 mb 0.00 in0.0 mm 0.00 in0.0 mm 0.01 in0.3 mm
06:00 PM 35.6°F2.0°C 27.8°F-2.3°C 73% 11.7 mph NNE18.8 kmh NNE 14.5 mph23.3 kmh 29.20 in988.8 mb 0.00 in0.0 mm 0.00 in0.0 mm 0.01 in0.3 mm
06:10 PM 35.8°F2.1°C 28.0°F-2.2°C 73% 13.2 mph N21.2 kmh N 19.0 mph30.6 kmh 29.21 in989.2 mb 0.00 in0.0 mm 0.00 in0.0 mm 0.01 in0.3 mm
06:20 PM 35.6°F2.0°C 27.8°F-2.3°C 73% 10.7 mph NNW17.2 kmh NNW 15.9 mph25.6 kmh 29.22 in989.5 mb 0.00 in0.0 mm 0.00 in0.0 mm 0.01 in0.3 mm
06:30 PM 35.6°F2.0°C 27.8°F-2.3°C 73% 9.6 mph N15.4 kmh N 13.0 mph20.9 kmh 29.23 in989.8 mb 0.00 in0.0 mm 0.00 in0.0 mm 0.01 in0.3 mm
06:40 PM 35.6°F2.0°C 28.1°F-2.2°C 74% 9.0 mph N14.5 kmh N 13.0 mph20.9 kmh 29.23 in989.8 mb 0.00 in0.0 mm 0.00 in0.0 mm 0.01 in0.3 mm
06:50 PM 35.6°F2.0°C 28.1°F-2.2°C 74% 9.5 mph NNW15.3 kmh NNW 12.1 mph19.5 kmh 29.23 in989.8 mb 0.00 in0.0 mm 0.00 in0.0 mm 0.01 in0.3 mm
07:00 PM 35.6°F2.0°C 28.1°F-2.2°C 74% 10.6 mph NW17.1 kmh NW 15.2 mph24.5 kmh 29.24 in990.2 mb 0.00 in0.0 mm 0.00 in0.0 mm 0.01 in0.3 mm
07:10 PM 35.6°F2.0°C 27.8°F-2.3°C 73% 10.1 mph NW16.3 kmh NW 15.2 mph24.5 kmh 29.24 in990.2 mb 0.00 in0.0 mm 0.00 in0.0 mm 0.01 in0.3 mm
07:20 PM 35.6°F2.0°C 27.8°F-2.3°C 73% 8.2 mph N13.2 kmh N 13.0 mph20.9 kmh 29.25 in990.5 mb 0.00 in0.0 mm 0.00 in0.0 mm 0.01 in0.3 mm
07:30 PM 35.8°F2.1°C 28.3°F-2.1°C 74% 9.4 mph N15.1 kmh N 13.0 mph20.9 kmh 29.26 in990.9 mb 0.00 in0.0 mm 0.00 in0.0 mm 0.01 in0.3 mm
07:40 PM 35.8°F2.1°C 28.0°F-2.2°C 73% 10.7 mph N17.2 kmh N 14.5 mph23.3 kmh 29.25 in990.5 mb 0.00 in0.0 mm 0.00 in0.0 mm 0.01 in0.3 mm
07:50 PM 35.8°F2.1°C 28.0°F-2.2°C 73% 9.8 mph NE15.8 kmh NE 13.0 mph20.9 kmh 29.27 in991.2 mb 0.00 in0.0 mm 0.00 in0.0 mm 0.01 in0.3 mm
08:00 PM 35.8°F2.1°C 28.0°F-2.2°C 73% 10.8 mph N17.4 kmh N 13.0 mph20.9 kmh 29.27 in991.2 mb 0.00 in0.0 mm 0.00 in0.0 mm 0.01 in0.3 mm
08:10 PM 35.8°F2.1°C 28.0°F-2.2°C 73% 12.2 mph NNE19.6 kmh NNE 16.8 mph27.0 kmh 29.27 in991.2 mb 0.00 in0.0 mm 0.00 in0.0 mm 0.01 in0.3 mm
08:20 PM 35.8°F2.1°C 28.0°F-2.2°C 73% 12.2 mph NW19.6 kmh NW 16.8 mph27.0 kmh 29.28 in991.5 mb 0.00 in0.0 mm 0.00 in0.0 mm 0.01 in0.3 mm
08:30 PM 35.8°F2.1°C 27.7°F-2.4°C 72% 13.4 mph NNW21.6 kmh NNW 21.3 mph34.3 kmh 29.28 in991.5 mb 0.00 in0.0 mm 0.00 in0.0 mm 0.01 in0.3 mm
08:40 PM 35.8°F2.1°C 27.7°F-2.4°C 72% 11.3 mph NE18.2 kmh NE 16.8 mph27.0 kmh 29.29 in991.9 mb 0.00 in0.0 mm 0.00 in0.0 mm 0.01 in0.3 mm
08:50 PM 35.6°F2.0°C 27.5°F-2.5°C 72% 10.8 mph NE17.4 kmh NE 15.9 mph25.6 kmh 29.30 in992.2 mb 0.00 in0.0 mm 0.00 in0.0 mm 0.01 in0.3 mm
09:00 PM 35.8°F2.1°C 27.7°F-2.4°C 72% 10.3 mph NE16.6 kmh NE 16.8 mph27.0 kmh 29.29 in991.9 mb 0.00 in0.0 mm 0.00 in0.0 mm 0.01 in0.3 mm
09:10 PM 35.6°F2.0°C 27.5°F-2.5°C 72% 13.8 mph NNE22.2 kmh NNE 15.9 mph25.6 kmh 29.30 in992.2 mb 0.00 in0.0 mm 0.00 in0.0 mm 0.01 in0.3 mm
09:20 PM 35.6°F2.0°C 27.5°F-2.5°C 72% 12.0 mph NNE19.3 kmh NNE 19.7 mph31.7 kmh 29.30 in992.2 mb 0.00 in0.0 mm 0.00 in0.0 mm 0.01 in0.3 mm
09:30 PM 35.6°F2.0°C 27.5°F-2.5°C 72% 10.5 mph NNE16.9 kmh NNE 16.8 mph27.0 kmh 29.31 in992.6 mb 0.00 in0.0 mm 0.00 in0.0 mm 0.01 in0.3 mm
09:40 PM 35.4°F1.9°C 27.3°F-2.6°C 72% 9.5 mph N15.3 kmh N 12.1 mph19.5 kmh 29.32 in992.9 mb 0.00 in0.0 mm 0.00 in0.0 mm 0.01 in0.3 mm
09:50 PM 35.4°F1.9°C 27.3°F-2.6°C 72% 13.2 mph N21.2 kmh N 18.3 mph29.5 kmh 29.32 in992.9 mb 0.00 in0.0 mm 0.00 in0.0 mm 0.01 in0.3 mm
10:00 PM 35.2°F1.8°C 27.1°F-2.7°C 72% 10.1 mph NE16.3 kmh NE 15.2 mph24.5 kmh 29.33 in993.2 mb 0.00 in0.0 mm 0.00 in0.0 mm 0.01 in0.3 mm
10:10 PM 35.2°F1.8°C 27.1°F-2.7°C 72% 11.0 mph N17.7 kmh N 17.4 mph28.0 kmh 29.34 in993.6 mb 0.00 in0.0 mm 0.00 in0.0 mm 0.01 in0.3 mm
10:20 PM 35.2°F1.8°C 27.1°F-2.7°C 72% 8.9 mph NNE14.3 kmh NNE 14.5 mph23.3 kmh 29.34 in993.6 mb 0.00 in0.0 mm 0.00 in0.0 mm 0.01 in0.3 mm
10:30 PM 35.2°F1.8°C 27.1°F-2.7°C 72% 9.5 mph N15.3 kmh N 16.8 mph27.0 kmh 29.35 in993.9 mb 0.00 in0.0 mm 0.00 in0.0 mm 0.01 in0.3 mm
10:40 PM 34.9°F1.6°C 26.8°F-2.9°C 72% 8.0 mph NE12.9 kmh NE 10.7 mph17.2 kmh 29.35 in993.9 mb 0.01 in0.3 mm 0.06 in1.5 mm 0.02 in0.5 mm
10:50 PM 34.9°F1.6°C 26.8°F-2.9°C 72% 8.3 mph NE13.4 kmh NE 11.4 mph18.3 kmh 29.36 in994.2 mb 0.01 in0.3 mm 0.00 in0.0 mm 0.02 in0.5 mm
11:00 PM 35.1°F1.7°C 27.0°F-2.8°C 72% 9.6 mph NNE15.4 kmh NNE 14.5 mph23.3 kmh 29.36 in994.2 mb 0.01 in0.3 mm 0.00 in0.0 mm 0.02 in0.5 mm
11:10 PM 35.2°F1.8°C 27.1°F-2.7°C 72% 8.5 mph N13.7 kmh N 11.4 mph18.3 kmh 29.36 in994.2 mb 0.01 in0.3 mm 0.00 in0.0 mm 0.02 in0.5 mm
11:20 PM 35.6°F2.0°C 27.5°F-2.5°C 72% 11.3 mph NE18.2 kmh NE 20.6 mph33.2 kmh 29.36 in994.2 mb 0.01 in0.3 mm 0.00 in0.0 mm 0.02 in0.5 mm
11:30 PM 35.4°F1.9°C 27.0°F-2.8°C 71% 10.7 mph NNW17.2 kmh NNW 15.2 mph24.5 kmh 29.37 in994.6 mb 0.01 in0.3 mm 0.00 in0.0 mm 0.02 in0.5 mm
11:40 PM 34.9°F1.6°C 26.5°F-3.1°C 71% 9.5 mph NNW15.3 kmh NNW 15.2 mph24.5 kmh 29.38 in994.9 mb 0.00 in0.0 mm 0.00 in0.0 mm 0.02 in0.5 mm
11:50 PM 34.7°F1.5°C 26.3°F-3.2°C 71% 9.8 mph NNW15.8 kmh NNW 14.5 mph23.3 kmh 29.39 in995.3 mb 0.00 in0.0 mm 0.00 in0.0 mm 0.02 in0.5 mm